createdAt,value
2022-10-17T00:00:55.932Z,10.16
2022-10-17T00:03:57.328Z,10.16
2022-10-17T00:06:58.669Z,10.20
2022-10-17T00:10:00.067Z,10.16
2022-10-17T00:13:01.500Z,10.16
2022-10-17T00:16:11.113Z,10.16
2022-10-17T00:19:12.459Z,10.15
2022-10-17T00:22:13.855Z,10.16
2022-10-17T00:25:15.220Z,10.16
2022-10-17T00:28:16.914Z,10.10
2022-10-17T00:31:18.713Z,10.01
2022-10-17T00:34:20.068Z,10.00
2022-10-17T00:37:21.417Z,10.08
2022-10-17T00:40:22.915Z,10.07
2022-10-17T00:43:24.285Z,9.99
2022-10-17T00:46:26.953Z,10.03
2022-10-17T00:49:29.033Z,9.97
2022-10-17T00:52:30.729Z,9.98
2022-10-17T00:55:33.224Z,9.92
2022-10-17T00:58:34.741Z,9.87
2022-10-17T01:01:36.091Z,9.83
2022-10-17T01:04:37.832Z,9.81
2022-10-17T01:07:39.624Z,9.82
2022-10-17T01:10:44.044Z,9.84
2022-10-17T01:13:52.361Z,9.79
2022-10-17T01:16:59.793Z,9.79
2022-10-17T01:20:04.201Z,9.78
2022-10-17T01:23:11.684Z,9.73
2022-10-17T01:26:45.547Z,9.72
2022-10-17T01:29:59.164Z,9.69
2022-10-17T01:33:06.650Z,9.67
2022-10-17T01:36:26.382Z,9.67
2022-10-17T01:39:46.984Z,9.66
2022-10-17T01:42:53.522Z,9.61
2022-10-17T01:46:11.817Z,9.56
2022-10-17T01:49:13.320Z,9.54
2022-10-17T01:52:22.661Z,9.53
2022-10-17T01:55:25.851Z,9.53
2022-10-17T01:58:28.580Z,9.49
2022-10-17T02:01:30.767Z,9.49
2022-10-17T02:04:32.139Z,9.52
2022-10-17T02:07:33.529Z,9.44
2022-10-17T02:10:55.489Z,9.43
2022-10-17T02:13:56.821Z,9.38
2022-10-17T02:17:17.072Z,9.38
2022-10-17T02:20:21.456Z,9.37
2022-10-17T02:23:41.241Z,9.38
2022-10-17T02:26:52.511Z,9.36
2022-10-17T02:29:57.426Z,9.33
2022-10-17T02:32:59.980Z,9.32
2022-10-17T02:36:03.304Z,9.29
2022-10-17T02:39:04.621Z,9.28
2022-10-17T02:42:06.514Z,9.27
2022-10-17T02:45:08.071Z,9.24
2022-10-17T02:48:10.953Z,9.24
2022-10-17T02:51:22.556Z,9.21
2022-10-17T02:54:39.090Z,9.17
2022-10-17T02:57:41.343Z,9.19
2022-10-17T03:00:42.673Z,9.24
2022-10-17T03:03:44.022Z,9.19
2022-10-17T03:06:46.001Z,9.17
2022-10-17T03:09:47.356Z,9.17
2022-10-17T03:12:48.807Z,9.14
2022-10-17T03:15:50.222Z,9.16
2022-10-17T03:18:51.592Z,9.17
2022-10-17T03:21:52.972Z,9.17
2022-10-17T03:24:54.342Z,9.20
2022-10-17T03:27:57.592Z,9.22
2022-10-17T03:30:58.962Z,9.24
2022-10-17T03:34:01.602Z,9.25
2022-10-17T03:37:03.023Z,9.30
2022-10-17T03:40:04.518Z,9.28
2022-10-17T03:43:06.012Z,9.24
2022-10-17T03:46:07.424Z,9.22
2022-10-17T03:49:09.339Z,9.25
2022-10-17T03:52:11.386Z,9.27
2022-10-17T03:55:12.742Z,9.28
2022-10-17T03:58:14.105Z,9.30
2022-10-17T04:01:15.816Z,9.22
2022-10-17T04:04:17.223Z,9.20
2022-10-17T04:07:18.636Z,9.17
2022-10-17T04:10:19.998Z,9.19
2022-10-17T04:13:21.344Z,9.16
2022-10-17T04:16:22.875Z,9.12
2022-10-17T04:19:25.803Z,9.09
2022-10-17T04:22:27.585Z,9.08
2022-10-17T04:25:32.180Z,9.10
2022-10-17T04:28:35.019Z,9.11
2022-10-17T04:31:36.466Z,9.11
2022-10-17T04:34:37.851Z,9.11
2022-10-17T04:37:39.176Z,9.08
2022-10-17T04:40:40.502Z,9.09
2022-10-17T04:43:44.416Z,9.03
2022-10-17T04:46:48.322Z,9.05
2022-10-17T04:49:49.674Z,9.07
2022-10-17T04:52:51.045Z,9.06
2022-10-17T04:55:52.515Z,9.03
2022-10-17T04:58:53.878Z,9.03
2022-10-17T05:01:55.265Z,8.99
2022-10-17T05:04:56.670Z,8.97
2022-10-17T05:07:58.014Z,8.93
2022-10-17T05:14:06.151Z,8.90
2022-10-17T05:17:07.504Z,8.89
2022-10-17T05:20:09.105Z,8.88
2022-10-17T05:23:10.508Z,8.88
2022-10-17T05:26:11.894Z,8.88
2022-10-17T05:29:13.268Z,8.93
2022-10-17T05:32:15.329Z,8.94
2022-10-17T05:35:16.711Z,8.97
2022-10-17T05:38:18.054Z,8.89
2022-10-17T05:41:19.408Z,8.88
2022-10-17T05:44:20.737Z,8.87
2022-10-17T05:47:22.094Z,8.87
2022-10-17T05:50:25.179Z,8.90
2022-10-17T05:53:26.610Z,8.87
2022-10-17T05:56:27.942Z,8.91
2022-10-17T05:59:29.292Z,8.89
2022-10-17T06:02:31.033Z,8.95
2022-10-17T06:05:35.002Z,8.97
2022-10-17T06:08:36.538Z,9.02
2022-10-17T06:11:37.877Z,9.04
2022-10-17T06:14:39.247Z,9.06
2022-10-17T06:17:40.577Z,9.13
2022-10-17T06:20:45.296Z,9.14
2022-10-17T06:23:47.751Z,9.21
2022-10-17T06:26:49.952Z,9.27
2022-10-17T06:29:51.286Z,9.28
2022-10-17T06:32:52.790Z,9.40
2022-10-17T06:35:54.380Z,9.42
2022-10-17T06:38:56.193Z,9.46
2022-10-17T06:41:57.581Z,9.51
2022-10-17T06:44:58.957Z,9.52
2022-10-17T06:48:01.746Z,9.64
2022-10-17T06:51:04.526Z,9.70
2022-10-17T06:54:05.912Z,9.78
2022-10-17T06:57:07.311Z,9.88
2022-10-17T07:00:08.941Z,10.02
2022-10-17T07:03:10.284Z,10.18
2022-10-17T07:06:11.662Z,10.23
2022-10-17T07:09:13.064Z,10.36
2022-10-17T07:12:14.400Z,10.42
2022-10-17T07:15:15.743Z,10.58
2022-10-17T07:18:17.150Z,10.67
2022-10-17T07:21:18.500Z,10.80
2022-10-17T07:24:19.834Z,10.86
2022-10-17T07:27:21.162Z,10.93
2022-10-17T07:30:22.640Z,11.03
2022-10-17T07:33:24.066Z,11.10
2022-10-17T07:36:25.425Z,11.21
2022-10-17T07:39:26.811Z,11.36
2022-10-17T07:42:28.607Z,11.48
2022-10-17T07:45:30.223Z,11.57
2022-10-17T07:48:31.711Z,11.62
2022-10-17T07:51:33.599Z,11.74
2022-10-17T07:54:35.033Z,11.90
2022-10-17T07:57:36.368Z,11.96
2022-10-17T08:00:37.814Z,12.16
2022-10-17T08:03:39.214Z,12.35
2022-10-17T08:06:40.613Z,12.55
2022-10-17T08:09:42.519Z,12.72
2022-10-17T08:12:43.843Z,12.93
2022-10-17T08:15:47.816Z,13.10
2022-10-17T08:18:49.167Z,13.29
2022-10-17T08:21:51.847Z,13.55
2022-10-17T08:24:53.233Z,13.87
2022-10-17T08:27:54.572Z,14.25
2022-10-17T08:31:15.122Z,15.39
2022-10-17T08:34:16.586Z,16.55
2022-10-17T08:37:17.903Z,16.93
2022-10-17T08:40:20.839Z,17.96
2022-10-17T08:43:35.211Z,18.16
2022-10-17T08:46:45.420Z,18.24
2022-10-17T08:49:47.792Z,17.96
2022-10-17T08:52:50.840Z,18.18
2022-10-17T08:55:52.597Z,18.21
2022-10-17T08:58:53.982Z,18.90
2022-10-17T09:02:03.682Z,19.36
2022-10-17T09:05:08.108Z,18.95
2022-10-17T09:08:09.410Z,20.64
2022-10-17T09:11:25.192Z,20.22
2022-10-17T09:14:26.508Z,21.79
2022-10-17T09:17:40.247Z,21.79
2022-10-17T09:20:43.352Z,22.63
2022-10-17T09:23:56.069Z,23.41
2022-10-17T09:27:05.856Z,22.97
2022-10-17T09:30:26.892Z,22.95
2022-10-17T09:33:53.296Z,21.58
2022-10-17T09:36:55.908Z,22.38
2022-10-17T09:39:57.245Z,22.87
2022-10-17T09:42:58.754Z,22.32
2022-10-17T09:46:00.180Z,22.12
2022-10-17T09:52:13.008Z,23.05
2022-10-17T09:55:21.708Z,23.59
2022-10-17T09:58:23.073Z,22.90
2022-10-17T10:01:25.371Z,23.24
2022-10-17T10:04:30.218Z,23.23
2022-10-17T10:07:36.722Z,23.46
2022-10-17T10:10:38.065Z,23.66
2022-10-17T10:13:39.422Z,24.35
2022-10-17T10:16:43.875Z,24.19
2022-10-17T10:19:49.745Z,23.54
2022-10-17T10:23:09.928Z,23.88
2022-10-17T10:26:18.937Z,25.27
2022-10-17T10:29:32.522Z,25.79
2022-10-17T10:32:34.616Z,26.46
2022-10-17T10:35:36.138Z,26.61
2022-10-17T10:38:38.027Z,26.84
2022-10-17T10:41:46.385Z,26.88
2022-10-17T10:44:47.765Z,27.42
2022-10-17T10:47:52.752Z,28.51
2022-10-17T10:50:56.264Z,28.31
2022-10-17T10:54:01.389Z,27.84
2022-10-17T10:57:04.061Z,27.27
2022-10-17T11:00:12.437Z,27.28
2022-10-17T11:03:15.710Z,25.59
2022-10-17T11:06:19.240Z,27.01
2022-10-17T11:09:28.842Z,26.63
2022-10-17T11:15:47.388Z,26.19
2022-10-17T11:18:50.447Z,27.19
2022-10-17T11:21:58.246Z,27.63
2022-10-17T11:25:00.708Z,27.77
2022-10-17T11:28:10.466Z,27.93
2022-10-17T11:31:14.955Z,26.03
2022-10-17T11:34:26.458Z,24.99
2022-10-17T11:37:29.367Z,24.80
2022-10-17T11:40:31.411Z,24.61
2022-10-17T11:43:34.284Z,24.54
2022-10-17T11:46:36.104Z,24.98
2022-10-17T11:49:40.683Z,25.41
2022-10-17T11:53:03.131Z,25.15
2022-10-17T11:56:05.038Z,24.44
2022-10-17T11:59:09.376Z,24.24
2022-10-17T12:02:34.092Z,24.91
2022-10-17T12:05:38.637Z,24.48
2022-10-17T12:08:45.325Z,24.66
2022-10-17T12:11:50.616Z,24.10
2022-10-17T12:14:52.050Z,23.64
2022-10-17T12:17:56.464Z,24.07
2022-10-17T12:20:58.177Z,24.22
2022-10-17T12:23:59.522Z,24.22
2022-10-17T12:27:19.673Z,23.97
2022-10-17T12:30:22.050Z,24.26
2022-10-17T12:33:26.814Z,23.98
2022-10-17T12:36:28.288Z,23.58
2022-10-17T12:39:29.617Z,23.40
2022-10-17T12:42:31.677Z,23.54
2022-10-17T12:45:49.936Z,23.47
2022-10-17T12:48:58.622Z,23.27
2022-10-17T12:52:18.330Z,23.06
2022-10-17T12:55:19.725Z,22.90
2022-10-17T12:58:21.035Z,22.84
2022-10-17T13:01:24.709Z,22.86
2022-10-17T13:04:26.302Z,22.96
2022-10-17T13:07:27.957Z,22.74
2022-10-17T13:10:30.461Z,22.86
2022-10-17T13:13:48.797Z,22.89
2022-10-17T13:17:00.201Z,23.00
2022-10-17T13:20:01.810Z,22.96
2022-10-17T13:23:03.787Z,22.97
2022-10-17T13:26:15.535Z,23.04
2022-10-17T13:29:16.967Z,23.17
2022-10-17T13:32:19.259Z,23.63
2022-10-17T13:38:58.739Z,25.20
2022-10-17T13:42:00.077Z,25.45
2022-10-17T13:45:01.422Z,25.02
2022-10-17T13:48:06.641Z,24.98
2022-10-17T13:51:11.146Z,25.70
2022-10-17T13:54:40.184Z,24.89
2022-10-17T13:57:41.613Z,25.48
2022-10-17T14:00:43.964Z,25.67
2022-10-17T14:03:48.776Z,26.17
2022-10-17T14:06:52.255Z,26.02
2022-10-17T14:09:53.946Z,25.72
2022-10-17T14:12:55.340Z,26.40
2022-10-17T14:15:57.759Z,27.34
2022-10-17T14:18:59.292Z,27.63
2022-10-17T14:22:19.525Z,27.98
2022-10-17T14:25:35.531Z,27.06
2022-10-17T14:28:37.039Z,26.46
2022-10-17T14:31:38.501Z,25.13
2022-10-17T14:34:40.581Z,24.71
2022-10-17T14:37:45.743Z,24.26
2022-10-17T14:40:50.980Z,23.82
2022-10-17T14:43:56.417Z,23.36
2022-10-17T14:46:59.347Z,23.13
2022-10-17T14:50:13.124Z,22.91
2022-10-17T14:53:14.418Z,22.40
2022-10-17T14:56:23.346Z,22.11
2022-10-17T14:59:52.164Z,21.84
2022-10-17T15:02:47.381Z,21.54
2022-10-17T15:05:48.958Z,21.26
2022-10-17T15:08:50.444Z,21.01
2022-10-17T15:11:51.854Z,20.67
2022-10-17T15:14:53.368Z,20.38
2022-10-17T15:17:54.750Z,19.90
2022-10-17T15:21:04.846Z,19.81
2022-10-17T15:24:08.021Z,19.72
2022-10-17T15:27:16.305Z,19.79
2022-10-17T15:30:21.512Z,19.69
2022-10-17T15:33:23.249Z,19.55
2022-10-17T15:36:25.404Z,19.26
2022-10-17T15:39:26.852Z,19.06
2022-10-17T15:42:29.484Z,18.86
2022-10-17T15:45:30.866Z,18.56
2022-10-17T15:48:32.233Z,18.36
2022-10-17T15:51:33.610Z,18.13
2022-10-17T15:54:34.978Z,17.91
2022-10-17T15:57:38.138Z,17.74
2022-10-17T16:00:39.537Z,17.66
2022-10-17T16:03:40.946Z,17.58
2022-10-17T16:06:42.649Z,17.43
2022-10-17T16:09:44.162Z,17.27
2022-10-17T16:12:45.515Z,17.16
2022-10-17T16:15:46.873Z,17.00
2022-10-17T16:18:48.398Z,16.96
2022-10-17T16:21:49.713Z,16.96
2022-10-17T16:24:58.164Z,16.87
2022-10-17T16:27:59.745Z,16.75
2022-10-17T16:31:01.137Z,16.63
2022-10-17T16:34:03.076Z,16.49
2022-10-17T16:37:04.444Z,16.32
2022-10-17T16:40:06.014Z,16.22
2022-10-17T16:43:07.878Z,16.17
2022-10-17T16:46:09.441Z,16.05
2022-10-17T16:49:12.188Z,16.01
2022-10-17T16:52:13.541Z,15.92
2022-10-17T16:55:14.961Z,15.85
2022-10-17T16:58:16.328Z,15.71
2022-10-17T17:01:18.582Z,15.60
2022-10-17T17:04:20.044Z,15.49
2022-10-17T17:07:22.164Z,15.43
2022-10-17T17:10:23.538Z,15.34
2022-10-17T17:13:25.359Z,15.29
2022-10-17T17:16:26.810Z,15.21
2022-10-17T17:19:28.162Z,15.09
2022-10-17T17:22:29.506Z,15.07
2022-10-17T17:25:30.830Z,14.85
2022-10-17T17:28:32.356Z,14.81
2022-10-17T17:31:34.090Z,14.72
2022-10-17T17:34:35.932Z,14.57
2022-10-17T17:37:37.321Z,14.56
2022-10-17T17:40:49.615Z,14.61
2022-10-17T17:43:52.596Z,14.44
2022-10-17T17:46:54.019Z,14.34
2022-10-17T17:49:55.362Z,14.24
2022-10-17T17:52:56.744Z,14.21
2022-10-17T17:56:01.994Z,14.11
2022-10-17T17:59:03.435Z,14.08
2022-10-17T18:02:06.400Z,14.09
2022-10-17T18:05:07.778Z,14.08
2022-10-17T18:08:09.157Z,13.97
2022-10-17T18:11:10.596Z,13.89
2022-10-17T18:14:11.992Z,13.84
2022-10-17T18:17:13.339Z,13.81
2022-10-17T18:20:14.669Z,13.78
2022-10-17T18:23:17.764Z,13.73
2022-10-17T18:26:19.279Z,13.74
2022-10-17T18:29:20.672Z,13.66
2022-10-17T18:32:22.143Z,13.59
2022-10-17T18:35:23.526Z,13.50
2022-10-17T18:38:24.970Z,13.45
2022-10-17T18:41:26.458Z,13.41
2022-10-17T18:44:27.859Z,13.42
2022-10-17T18:47:29.777Z,13.41
2022-10-17T18:50:31.319Z,13.41
2022-10-17T18:53:32.736Z,13.39
2022-10-17T18:56:34.077Z,13.31
2022-10-17T18:59:35.476Z,13.23
2022-10-17T19:02:38.069Z,13.17
2022-10-17T19:05:39.848Z,13.15
2022-10-17T19:08:41.771Z,13.07
2022-10-17T19:11:43.217Z,12.97
2022-10-17T19:14:44.556Z,12.91
2022-10-17T19:17:45.877Z,12.88
2022-10-17T19:20:47.259Z,12.92
2022-10-17T19:23:52.365Z,12.88
2022-10-17T19:26:54.808Z,12.90
2022-10-17T19:29:56.152Z,12.88
2022-10-17T19:32:57.496Z,12.83
2022-10-17T19:35:59.316Z,12.82
2022-10-17T19:39:01.602Z,12.78
2022-10-17T19:42:06.734Z,12.85
2022-10-17T19:45:08.915Z,12.83
2022-10-17T19:48:10.306Z,12.78
2022-10-17T19:51:12.392Z,12.74
2022-10-17T19:54:15.153Z,12.68
2022-10-17T19:57:16.572Z,12.69
2022-10-17T20:00:17.941Z,12.72
2022-10-17T20:03:19.305Z,12.63
2022-10-17T20:06:20.792Z,12.61
2022-10-17T20:09:22.236Z,12.67
2022-10-17T20:12:23.634Z,12.62
2022-10-17T20:15:25.032Z,12.59
2022-10-17T20:18:26.395Z,12.52
2022-10-17T20:21:28.008Z,12.54
2022-10-17T20:24:29.421Z,12.55
2022-10-17T20:27:30.751Z,12.52
2022-10-17T20:30:32.145Z,12.53
2022-10-17T20:33:33.489Z,12.42
2022-10-17T20:36:37.423Z,12.36
2022-10-17T20:39:39.139Z,12.29
2022-10-17T20:42:40.500Z,12.29
2022-10-17T20:45:51.172Z,12.22
2022-10-17T20:48:53.780Z,12.23
2022-10-17T20:51:55.121Z,12.25
2022-10-17T20:54:56.498Z,12.20
2022-10-17T20:57:57.941Z,12.22
2022-10-17T21:00:59.378Z,12.20
2022-10-17T21:04:21.484Z,12.12
2022-10-17T21:07:22.573Z,12.06
2022-10-17T21:10:34.835Z,12.00
2022-10-17T21:13:37.130Z,11.99
2022-10-17T21:16:38.831Z,11.98
2022-10-17T21:19:40.244Z,11.96
2022-10-17T21:22:41.590Z,12.02
2022-10-17T21:25:42.968Z,12.05
2022-10-17T21:28:44.654Z,12.08
2022-10-17T21:31:45.996Z,12.10
2022-10-17T21:34:47.370Z,12.12
2022-10-17T21:37:48.776Z,12.15
2022-10-17T21:40:51.478Z,12.17
2022-10-17T21:43:55.999Z,12.17
2022-10-17T21:46:57.416Z,12.21
2022-10-17T21:49:58.784Z,12.28
2022-10-17T21:53:00.134Z,12.23
2022-10-17T21:56:01.867Z,12.28
2022-10-17T21:59:03.286Z,12.29
2022-10-17T22:02:04.701Z,12.27
2022-10-17T22:05:06.153Z,12.30
2022-10-17T22:08:07.533Z,12.33
2022-10-17T22:11:09.712Z,12.34
2022-10-17T22:14:13.410Z,12.35
2022-10-17T22:17:14.739Z,12.37
2022-10-17T22:20:16.122Z,12.35
2022-10-17T22:23:17.464Z,12.35
2022-10-17T22:26:18.826Z,12.38
2022-10-17T22:29:20.236Z,12.35
2022-10-17T22:32:22.607Z,12.33
2022-10-17T22:35:24.102Z,12.31
2022-10-17T22:38:25.458Z,12.31
2022-10-17T22:41:26.824Z,12.34
2022-10-17T22:44:28.238Z,12.31
2022-10-17T22:47:30.294Z,12.31
2022-10-17T22:50:31.885Z,12.36
2022-10-17T22:53:35.024Z,12.38
2022-10-17T22:56:36.384Z,12.39
2022-10-17T22:59:37.770Z,12.43
2022-10-17T23:02:39.175Z,12.47
2022-10-17T23:05:40.568Z,12.49
2022-10-17T23:08:41.909Z,12.50
2022-10-17T23:11:43.236Z,12.52
2022-10-17T23:14:44.624Z,12.54
2022-10-17T23:17:46.007Z,12.52
2022-10-17T23:20:47.402Z,12.51
2022-10-17T23:23:48.777Z,12.53
2022-10-17T23:26:50.129Z,12.54
2022-10-17T23:29:51.513Z,12.56
2022-10-17T23:32:53.036Z,12.56
2022-10-17T23:35:54.378Z,12.57
2022-10-17T23:38:58.439Z,12.57
2022-10-17T23:42:00.053Z,12.62
2022-10-17T23:45:01.429Z,12.66
2022-10-17T23:48:02.844Z,12.54
2022-10-17T23:51:04.495Z,12.53
2022-10-17T23:54:05.899Z,12.53
2022-10-17T23:57:07.642Z,12.54
